sensor_id;sensor_type;location;lat;lon;timestamp;temperature;humidity
59309;DHT22;48433;53.016;-2.260;2022-07-09T00:02:21;16.60;99.90
59309;DHT22;48433;53.016;-2.260;2022-07-09T00:04:49;16.60;99.90
59309;DHT22;48433;53.016;-2.260;2022-07-09T00:07:16;16.70;99.90
59309;DHT22;48433;53.016;-2.260;2022-07-09T00:09:43;16.70;99.90
59309;DHT22;48433;53.016;-2.260;2022-07-09T00:12:11;16.70;99.90
59309;DHT22;48433;53.016;-2.260;2022-07-09T00:14:38;16.70;99.90
59309;DHT22;48433;53.016;-2.260;2022-07-09T00:17:06;16.70;99.90
59309;DHT22;48433;53.016;-2.260;2022-07-09T00:19:33;16.70;99.90
59309;DHT22;48433;53.016;-2.260;2022-07-09T00:22:01;16.70;99.90
59309;DHT22;48433;53.016;-2.260;2022-07-09T00:24:28;16.70;99.90
59309;DHT22;48433;53.016;-2.260;2022-07-09T00:26:56;16.70;99.90
59309;DHT22;48433;53.016;-2.260;2022-07-09T00:29:23;16.70;99.90
59309;DHT22;48433;53.016;-2.260;2022-07-09T00:31:50;16.70;99.90
59309;DHT22;48433;53.016;-2.260;2022-07-09T00:34:18;16.70;99.90
59309;DHT22;48433;53.016;-2.260;2022-07-09T00:36:46;16.60;99.90
59309;DHT22;48433;53.016;-2.260;2022-07-09T00:39:13;16.60;99.90
59309;DHT22;48433;53.016;-2.260;2022-07-09T00:41:41;16.50;99.90
59309;DHT22;48433;53.016;-2.260;2022-07-09T00:44:08;16.40;99.90
59309;DHT22;48433;53.016;-2.260;2022-07-09T00:46:35;16.40;99.90
59309;DHT22;48433;53.016;-2.260;2022-07-09T00:49:03;16.30;99.90
59309;DHT22;48433;53.016;-2.260;2022-07-09T00:51:32;16.20;99.90
59309;DHT22;48433;53.016;-2.260;2022-07-09T00:54:00;16.10;99.90
59309;DHT22;48433;53.016;-2.260;2022-07-09T00:56:28;16.10;99.90
59309;DHT22;48433;53.016;-2.260;2022-07-09T00:58:57;16.10;99.90
59309;DHT22;48433;53.016;-2.260;2022-07-09T01:01:25;16.10;99.90
59309;DHT22;48433;53.016;-2.260;2022-07-09T01:03:53;16.10;99.90
59309;DHT22;48433;53.016;-2.260;2022-07-09T01:06:20;16.20;99.90
59309;DHT22;48433;53.016;-2.260;2022-07-09T01:08:48;16.10;99.90
59309;DHT22;48433;53.016;-2.260;2022-07-09T01:11:15;15.80;99.90
59309;DHT22;48433;53.016;-2.260;2022-07-09T01:13:43;16.20;99.90
59309;DHT22;48433;53.016;-2.260;2022-07-09T01:16:13;16.10;99.90
59309;DHT22;48433;53.016;-2.260;2022-07-09T01:18:45;16.20;99.90
59309;DHT22;48433;53.016;-2.260;2022-07-09T01:21:13;16.20;99.90
59309;DHT22;48433;53.016;-2.260;2022-07-09T01:23:40;16.30;99.90
59309;DHT22;48433;53.016;-2.260;2022-07-09T01:26:08;16.30;99.90
59309;DHT22;48433;53.016;-2.260;2022-07-09T01:28:35;16.30;99.90
59309;DHT22;48433;53.016;-2.260;2022-07-09T01:31:02;16.30;99.90
59309;DHT22;48433;53.016;-2.260;2022-07-09T01:33:30;16.30;99.90
59309;DHT22;48433;53.016;-2.260;2022-07-09T01:35:59;16.40;99.90
59309;DHT22;48433;53.016;-2.260;2022-07-09T01:38:26;16.30;99.90
59309;DHT22;48433;53.016;-2.260;2022-07-09T01:40:54;16.40;99.90
59309;DHT22;48433;53.016;-2.260;2022-07-09T01:43:21;16.40;99.90
59309;DHT22;48433;53.016;-2.260;2022-07-09T01:45:49;16.40;99.90
59309;DHT22;48433;53.016;-2.260;2022-07-09T01:48:16;16.50;99.90
59309;DHT22;48433;53.016;-2.260;2022-07-09T01:50:43;16.50;99.90
59309;DHT22;48433;53.016;-2.260;2022-07-09T01:53:11;16.50;99.90
59309;DHT22;48433;53.016;-2.260;2022-07-09T01:55:38;16.50;99.90
59309;DHT22;48433;53.016;-2.260;2022-07-09T01:58:06;16.60;99.90
59309;DHT22;48433;53.016;-2.260;2022-07-09T02:00:33;16.60;99.90
59309;DHT22;48433;53.016;-2.260;2022-07-09T02:03:01;16.60;99.90
59309;DHT22;48433;53.016;-2.260;2022-07-09T02:05:28;16.60;99.90
59309;DHT22;48433;53.016;-2.260;2022-07-09T02:07:56;16.60;99.90
59309;DHT22;48433;53.016;-2.260;2022-07-09T02:10:24;16.60;99.90
59309;DHT22;48433;53.016;-2.260;2022-07-09T02:12:51;16.60;99.90
59309;DHT22;48433;53.016;-2.260;2022-07-09T02:15:20;16.60;99.90
59309;DHT22;48433;53.016;-2.260;2022-07-09T02:17:49;16.60;99.90
59309;DHT22;48433;53.016;-2.260;2022-07-09T02:20:16;16.70;99.90
59309;DHT22;48433;53.016;-2.260;2022-07-09T02:22:44;16.70;99.90
59309;DHT22;48433;53.016;-2.260;2022-07-09T02:25:11;16.70;99.90
59309;DHT22;48433;53.016;-2.260;2022-07-09T02:27:38;16.70;99.90
59309;DHT22;48433;53.016;-2.260;2022-07-09T02:30:06;16.70;99.90
59309;DHT22;48433;53.016;-2.260;2022-07-09T02:32:34;16.70;99.90
59309;DHT22;48433;53.016;-2.260;2022-07-09T02:35:04;16.70;99.90
59309;DHT22;48433;53.016;-2.260;2022-07-09T02:37:31;16.70;99.90
59309;DHT22;48433;53.016;-2.260;2022-07-09T02:39:59;16.70;99.90
59309;DHT22;48433;53.016;-2.260;2022-07-09T02:42:27;16.70;99.90
59309;DHT22;48433;53.016;-2.260;2022-07-09T02:44:54;16.70;99.90
59309;DHT22;48433;53.016;-2.260;2022-07-09T02:47:21;16.60;99.90
59309;DHT22;48433;53.016;-2.260;2022-07-09T02:49:49;16.60;99.90
59309;DHT22;48433;53.016;-2.260;2022-07-09T02:52:16;16.50;99.90
59309;DHT22;48433;53.016;-2.260;2022-07-09T02:54:44;16.50;99.90
59309;DHT22;48433;53.016;-2.260;2022-07-09T02:57:11;16.50;99.90
59309;DHT22;48433;53.016;-2.260;2022-07-09T02:59:40;16.60;99.90
59309;DHT22;48433;53.016;-2.260;2022-07-09T03:02:07;16.60;99.90
59309;DHT22;48433;53.016;-2.260;2022-07-09T03:04:35;16.70;99.90
59309;DHT22;48433;53.016;-2.260;2022-07-09T03:07:02;16.70;99.90
59309;DHT22;48433;53.016;-2.260;2022-07-09T03:09:30;16.70;99.90
59309;DHT22;48433;53.016;-2.260;2022-07-09T03:11:57;16.80;99.90
59309;DHT22;48433;53.016;-2.260;2022-07-09T03:14:25;16.80;99.90
59309;DHT22;48433;53.016;-2.260;2022-07-09T03:16:52;16.80;99.90
59309;DHT22;48433;53.016;-2.260;2022-07-09T03:19:19;16.80;99.90
59309;DHT22;48433;53.016;-2.260;2022-07-09T03:21:47;16.80;99.90
59309;DHT22;48433;53.016;-2.260;2022-07-09T03:24:15;16.80;99.90
59309;DHT22;48433;53.016;-2.260;2022-07-09T03:26:42;16.90;99.90
59309;DHT22;48433;53.016;-2.260;2022-07-09T03:29:10;16.80;99.90
59309;DHT22;48433;53.016;-2.260;2022-07-09T03:31:37;16.80;99.90
59309;DHT22;48433;53.016;-2.260;2022-07-09T03:34:05;16.80;99.90
59309;DHT22;48433;53.016;-2.260;2022-07-09T03:36:33;16.90;99.90
59309;DHT22;48433;53.016;-2.260;2022-07-09T03:39:00;16.80;99.90
59309;DHT22;48433;53.016;-2.260;2022-07-09T03:41:28;16.80;99.90
59309;DHT22;48433;53.016;-2.260;2022-07-09T03:43:55;16.80;99.90
59309;DHT22;48433;53.016;-2.260;2022-07-09T03:46:23;16.80;99.90
59309;DHT22;48433;53.016;-2.260;2022-07-09T03:48:51;16.70;99.90
59309;DHT22;48433;53.016;-2.260;2022-07-09T03:51:19;16.70;99.90
59309;DHT22;48433;53.016;-2.260;2022-07-09T03:53:46;16.70;99.90
59309;DHT22;48433;53.016;-2.260;2022-07-09T03:56:13;16.60;99.90
59309;DHT22;48433;53.016;-2.260;2022-07-09T03:58:41;16.70;99.90
59309;DHT22;48433;53.016;-2.260;2022-07-09T04:01:10;16.70;99.90
59309;DHT22;48433;53.016;-2.260;2022-07-09T04:03:38;16.70;99.90
59309;DHT22;48433;53.016;-2.260;2022-07-09T04:06:06;16.70;99.90
59309;DHT22;48433;53.016;-2.260;2022-07-09T04:08:33;16.70;99.90
59309;DHT22;48433;53.016;-2.260;2022-07-09T04:11:01;16.70;99.90
59309;DHT22;48433;53.016;-2.260;2022-07-09T04:13:29;16.70;99.90
59309;DHT22;48433;53.016;-2.260;2022-07-09T04:15:56;16.70;99.90
59309;DHT22;48433;53.016;-2.260;2022-07-09T04:18:24;16.70;99.90
59309;DHT22;48433;53.016;-2.260;2022-07-09T04:20:51;16.60;99.90
59309;DHT22;48433;53.016;-2.260;2022-07-09T04:23:21;16.70;99.90
59309;DHT22;48433;53.016;-2.260;2022-07-09T04:25:49;16.70;99.90
59309;DHT22;48433;53.016;-2.260;2022-07-09T04:28:18;16.60;99.90
59309;DHT22;48433;53.016;-2.260;2022-07-09T04:30:45;16.60;99.90
59309;DHT22;48433;53.016;-2.260;2022-07-09T04:33:13;16.60;99.90
59309;DHT22;48433;53.016;-2.260;2022-07-09T04:35:41;16.60;99.90
59309;DHT22;48433;53.016;-2.260;2022-07-09T04:38:08;16.60;99.90
59309;DHT22;48433;53.016;-2.260;2022-07-09T04:40:35;16.60;99.90
59309;DHT22;48433;53.016;-2.260;2022-07-09T04:43:03;16.60;99.90
59309;DHT22;48433;53.016;-2.260;2022-07-09T04:45:31;16.60;99.90
59309;DHT22;48433;53.016;-2.260;2022-07-09T04:47:59;16.60;99.90
59309;DHT22;48433;53.016;-2.260;2022-07-09T04:50:27;16.60;99.90
59309;DHT22;48433;53.016;-2.260;2022-07-09T04:52:54;16.60;99.90
59309;DHT22;48433;53.016;-2.260;2022-07-09T04:55:22;16.60;99.90
59309;DHT22;48433;53.016;-2.260;2022-07-09T04:57:49;16.60;99.90
59309;DHT22;48433;53.016;-2.260;2022-07-09T05:00:17;16.60;99.90
59309;DHT22;48433;53.016;-2.260;2022-07-09T05:02:45;16.60;99.90
59309;DHT22;48433;53.016;-2.260;2022-07-09T05:05:13;16.50;99.90
59309;DHT22;48433;53.016;-2.260;2022-07-09T05:07:47;16.50;99.90
59309;DHT22;48433;53.016;-2.260;2022-07-09T05:10:15;16.50;99.90
59309;DHT22;48433;53.016;-2.260;2022-07-09T05:12:47;16.50;99.90
59309;DHT22;48433;53.016;-2.260;2022-07-09T05:15:14;16.40;99.90
59309;DHT22;48433;53.016;-2.260;2022-07-09T05:17:41;16.30;99.90
59309;DHT22;48433;53.016;-2.260;2022-07-09T05:20:10;16.30;99.90
59309;DHT22;48433;53.016;-2.260;2022-07-09T05:22:38;16.30;99.90
59309;DHT22;48433;53.016;-2.260;2022-07-09T05:25:06;16.40;99.90
59309;DHT22;48433;53.016;-2.260;2022-07-09T05:27:40;16.50;99.90
59309;DHT22;48433;53.016;-2.260;2022-07-09T05:30:07;16.50;99.90
59309;DHT22;48433;53.016;-2.260;2022-07-09T05:32:39;16.60;99.90
59309;DHT22;48433;53.016;-2.260;2022-07-09T05:35:07;16.50;99.90
59309;DHT22;48433;53.016;-2.260;2022-07-09T05:37:40;16.40;99.90
59309;DHT22;48433;53.016;-2.260;2022-07-09T05:40:08;16.40;99.90
59309;DHT22;48433;53.016;-2.260;2022-07-09T05:42:35;16.30;99.90
59309;DHT22;48433;53.016;-2.260;2022-07-09T05:45:03;16.30;99.90
59309;DHT22;48433;53.016;-2.260;2022-07-09T05:47:31;16.30;99.90
59309;DHT22;48433;53.016;-2.260;2022-07-09T05:49:59;16.30;99.90
59309;DHT22;48433;53.016;-2.260;2022-07-09T05:52:26;16.30;99.90
59309;DHT22;48433;53.016;-2.260;2022-07-09T05:54:53;16.30;99.90
59309;DHT22;48433;53.016;-2.260;2022-07-09T05:57:21;16.20;99.90
59309;DHT22;48433;53.016;-2.260;2022-07-09T05:59:48;16.20;99.90
59309;DHT22;48433;53.016;-2.260;2022-07-09T06:02:16;16.10;99.90
59309;DHT22;48433;53.016;-2.260;2022-07-09T06:04:44;16.10;99.90
59309;DHT22;48433;53.016;-2.260;2022-07-09T06:07:11;16.10;99.90
59309;DHT22;48433;53.016;-2.260;2022-07-09T06:09:39;16.10;99.90
59309;DHT22;48433;53.016;-2.260;2022-07-09T06:12:09;16.10;99.90
59309;DHT22;48433;53.016;-2.260;2022-07-09T06:14:37;16.10;99.90
59309;DHT22;48433;53.016;-2.260;2022-07-09T06:17:05;16.20;99.90
59309;DHT22;48433;53.016;-2.260;2022-07-09T06:19:33;16.30;99.90
59309;DHT22;48433;53.016;-2.260;2022-07-09T06:22:01;16.40;99.90
59309;DHT22;48433;53.016;-2.260;2022-07-09T06:24:29;16.50;99.90
59309;DHT22;48433;53.016;-2.260;2022-07-09T06:26:57;16.50;99.90
59309;DHT22;48433;53.016;-2.260;2022-07-09T06:29:25;16.60;99.90
59309;DHT22;48433;53.016;-2.260;2022-07-09T06:31:52;16.70;99.90
59309;DHT22;48433;53.016;-2.260;2022-07-09T06:34:20;16.90;99.90
59309;DHT22;48433;53.016;-2.260;2022-07-09T06:36:47;17.00;99.90
59309;DHT22;48433;53.016;-2.260;2022-07-09T06:39:16;17.10;99.90
59309;DHT22;48433;53.016;-2.260;2022-07-09T06:42:04;17.10;99.90
59309;DHT22;48433;53.016;-2.260;2022-07-09T06:44:34;17.10;99.90
59309;DHT22;48433;53.016;-2.260;2022-07-09T06:47:02;17.10;99.90
59309;DHT22;48433;53.016;-2.260;2022-07-09T06:49:30;17.10;99.90
59309;DHT22;48433;53.016;-2.260;2022-07-09T06:51:57;17.10;99.90
59309;DHT22;48433;53.016;-2.260;2022-07-09T06:54:25;17.10;99.90
59309;DHT22;48433;53.016;-2.260;2022-07-09T06:56:53;17.20;99.90
59309;DHT22;48433;53.016;-2.260;2022-07-09T06:59:20;17.20;99.90
59309;DHT22;48433;53.016;-2.260;2022-07-09T07:01:49;17.20;99.90
59309;DHT22;48433;53.016;-2.260;2022-07-09T07:04:17;17.20;99.90
59309;DHT22;48433;53.016;-2.260;2022-07-09T07:06:50;17.30;99.90
59309;DHT22;48433;53.016;-2.260;2022-07-09T07:09:21;17.30;99.90
59309;DHT22;48433;53.016;-2.260;2022-07-09T07:11:49;17.50;99.90
59309;DHT22;48433;53.016;-2.260;2022-07-09T07:14:17;17.50;99.90
59309;DHT22;48433;53.016;-2.260;2022-07-09T07:16:48;17.50;99.90
59309;DHT22;48433;53.016;-2.260;2022-07-09T07:19:16;17.50;99.90
59309;DHT22;48433;53.016;-2.260;2022-07-09T07:21:44;17.50;99.90
59309;DHT22;48433;53.016;-2.260;2022-07-09T07:24:14;17.50;99.90
59309;DHT22;48433;53.016;-2.260;2022-07-09T07:26:42;17.60;99.90
59309;DHT22;48433;53.016;-2.260;2022-07-09T07:29:09;17.70;99.90
59309;DHT22;48433;53.016;-2.260;2022-07-09T07:34:19;19.40;99.90
59309;DHT22;48433;53.016;-2.260;2022-07-09T07:36:50;18.20;99.90
59309;DHT22;48433;53.016;-2.260;2022-07-09T07:39:18;18.30;99.90
59309;DHT22;48433;53.016;-2.260;2022-07-09T07:41:46;18.40;99.90
59309;DHT22;48433;53.016;-2.260;2022-07-09T07:44:14;18.50;99.90
59309;DHT22;48433;53.016;-2.260;2022-07-09T07:46:41;18.50;99.90
59309;DHT22;48433;53.016;-2.260;2022-07-09T07:49:09;18.50;99.90
59309;DHT22;48433;53.016;-2.260;2022-07-09T07:51:36;18.50;99.90
59309;DHT22;48433;53.016;-2.260;2022-07-09T07:54:04;18.50;99.90
59309;DHT22;48433;53.016;-2.260;2022-07-09T07:56:32;18.70;99.90
59309;DHT22;48433;53.016;-2.260;2022-07-09T07:59:01;19.00;99.90
59309;DHT22;48433;53.016;-2.260;2022-07-09T08:01:28;19.20;99.90
59309;DHT22;48433;53.016;-2.260;2022-07-09T08:03:56;19.40;99.90
59309;DHT22;48433;53.016;-2.260;2022-07-09T08:06:23;19.50;99.90
59309;DHT22;48433;53.016;-2.260;2022-07-09T08:08:51;19.70;99.90
59309;DHT22;48433;53.016;-2.260;2022-07-09T08:11:18;19.70;99.90
59309;DHT22;48433;53.016;-2.260;2022-07-09T08:13:46;19.80;99.90
59309;DHT22;48433;53.016;-2.260;2022-07-09T08:16:13;19.90;99.70
59309;DHT22;48433;53.016;-2.260;2022-07-09T08:18:41;19.90;99.20
59309;DHT22;48433;53.016;-2.260;2022-07-09T08:21:09;20.00;98.90
59309;DHT22;48433;53.016;-2.260;2022-07-09T08:23:36;20.00;98.40
59309;DHT22;48433;53.016;-2.260;2022-07-09T08:26:23;20.00;98.10
59309;DHT22;48433;53.016;-2.260;2022-07-09T08:28:51;19.90;97.80
59309;DHT22;48433;53.016;-2.260;2022-07-09T08:31:19;19.90;97.90
59309;DHT22;48433;53.016;-2.260;2022-07-09T08:33:46;20.10;97.80
59309;DHT22;48433;53.016;-2.260;2022-07-09T08:36:14;20.20;97.40
59309;DHT22;48433;53.016;-2.260;2022-07-09T08:38:42;20.30;96.90
59309;DHT22;48433;53.016;-2.260;2022-07-09T08:41:09;20.50;96.80
59309;DHT22;48433;53.016;-2.260;2022-07-09T08:43:37;20.70;96.30
59309;DHT22;48433;53.016;-2.260;2022-07-09T08:46:05;20.80;95.50
59309;DHT22;48433;53.016;-2.260;2022-07-09T08:48:36;21.00;94.80
59309;DHT22;48433;53.016;-2.260;2022-07-09T08:51:05;21.10;94.20
59309;DHT22;48433;53.016;-2.260;2022-07-09T08:53:32;21.20;93.10
59309;DHT22;48433;53.016;-2.260;2022-07-09T08:56:00;21.20;93.20
59309;DHT22;48433;53.016;-2.260;2022-07-09T08:58:27;21.20;92.80
59309;DHT22;48433;53.016;-2.260;2022-07-09T09:00:54;21.20;92.60
59309;DHT22;48433;53.016;-2.260;2022-07-09T09:03:25;21.40;92.10
59309;DHT22;48433;53.016;-2.260;2022-07-09T09:06:02;21.60;91.50
59309;DHT22;48433;53.016;-2.260;2022-07-09T09:08:34;21.90;90.70
59309;DHT22;48433;53.016;-2.260;2022-07-09T09:11:03;22.10;89.90
59309;DHT22;48433;53.016;-2.260;2022-07-09T09:13:35;22.20;89.30
59309;DHT22;48433;53.016;-2.260;2022-07-09T09:16:07;22.20;87.80
59309;DHT22;48433;53.016;-2.260;2022-07-09T09:18:35;22.10;87.80
59309;DHT22;48433;53.016;-2.260;2022-07-09T09:21:04;22.10;88.00
59309;DHT22;48433;53.016;-2.260;2022-07-09T09:23:42;22.20;87.80
59309;DHT22;48433;53.016;-2.260;2022-07-09T09:26:11;22.30;87.30
59309;DHT22;48433;53.016;-2.260;2022-07-09T09:29:13;22.40;85.80
59309;DHT22;48433;53.016;-2.260;2022-07-09T09:31:33;22.40;85.30
59309;DHT22;48433;53.016;-2.260;2022-07-09T09:36:35;22.70;83.50
59309;DHT22;48433;53.016;-2.260;2022-07-09T09:39:12;22.90;83.40
59309;DHT22;48433;53.016;-2.260;2022-07-09T09:41:41;23.10;82.20
59309;DHT22;48433;53.016;-2.260;2022-07-09T09:44:09;23.30;80.30
59309;DHT22;48433;53.016;-2.260;2022-07-09T09:46:38;23.40;79.00
59309;DHT22;48433;53.016;-2.260;2022-07-09T09:49:06;23.50;78.70
59309;DHT22;48433;53.016;-2.260;2022-07-09T09:51:40;23.80;78.00
59309;DHT22;48433;53.016;-2.260;2022-07-09T09:54:09;24.00;77.30
59309;DHT22;48433;53.016;-2.260;2022-07-09T09:56:37;23.90;77.70
59309;DHT22;48433;53.016;-2.260;2022-07-09T09:59:05;23.70;77.60
59309;DHT22;48433;53.016;-2.260;2022-07-09T10:01:33;23.50;78.10
59309;DHT22;48433;53.016;-2.260;2022-07-09T10:04:01;23.30;79.30
59309;DHT22;48433;53.016;-2.260;2022-07-09T10:06:28;23.50;77.10
59309;DHT22;48433;53.016;-2.260;2022-07-09T10:08:56;23.80;75.80
59309;DHT22;48433;53.016;-2.260;2022-07-09T10:11:24;24.10;73.40
59309;DHT22;48433;53.016;-2.260;2022-07-09T10:16:18;24.40;70.80
59309;DHT22;48433;53.016;-2.260;2022-07-09T10:18:52;24.50;68.60
59309;DHT22;48433;53.016;-2.260;2022-07-09T10:21:31;24.60;68.30
59309;DHT22;48433;53.016;-2.260;2022-07-09T10:23:58;24.70;67.80
59309;DHT22;48433;53.016;-2.260;2022-07-09T10:29:23;25.00;65.90
59309;DHT22;48433;53.016;-2.260;2022-07-09T10:37:12;25.60;64.50
59309;DHT22;48433;53.016;-2.260;2022-07-09T10:39:40;25.90;65.00
59309;DHT22;48433;53.016;-2.260;2022-07-09T10:42:18;26.30;61.90
59309;DHT22;48433;53.016;-2.260;2022-07-09T10:44:46;26.60;59.70
59309;DHT22;48433;53.016;-2.260;2022-07-09T10:47:13;26.80;58.90
59309;DHT22;48433;53.016;-2.260;2022-07-09T10:49:41;26.90;58.00
59309;DHT22;48433;53.016;-2.260;2022-07-09T10:52:09;27.00;57.30
59309;DHT22;48433;53.016;-2.260;2022-07-09T10:54:46;27.10;57.50
59309;DHT22;48433;53.016;-2.260;2022-07-09T10:57:14;27.30;57.30
59309;DHT22;48433;53.016;-2.260;2022-07-09T10:59:45;27.50;57.00
59309;DHT22;48433;53.016;-2.260;2022-07-09T11:02:22;27.80;54.80
59309;DHT22;48433;53.016;-2.260;2022-07-09T11:04:50;28.00;53.80
59309;DHT22;48433;53.016;-2.260;2022-07-09T11:07:19;28.10;53.30
59309;DHT22;48433;53.016;-2.260;2022-07-09T11:09:47;28.20;53.50
59309;DHT22;48433;53.016;-2.260;2022-07-09T11:12:15;28.20;53.30
59309;DHT22;48433;53.016;-2.260;2022-07-09T11:14:46;28.30;51.90
59309;DHT22;48433;53.016;-2.260;2022-07-09T11:17:15;28.40;51.60
59309;DHT22;48433;53.016;-2.260;2022-07-09T11:19:42;28.70;51.40
59309;DHT22;48433;53.016;-2.260;2022-07-09T11:22:10;28.90;50.60
59309;DHT22;48433;53.016;-2.260;2022-07-09T11:24:37;28.80;50.10
59309;DHT22;48433;53.016;-2.260;2022-07-09T11:27:06;28.60;49.40
59309;DHT22;48433;53.016;-2.260;2022-07-09T11:29:34;28.10;49.30
59309;DHT22;48433;53.016;-2.260;2022-07-09T11:32:02;27.90;50.70
59309;DHT22;48433;53.016;-2.260;2022-07-09T11:34:30;28.10;50.50
59309;DHT22;48433;53.016;-2.260;2022-07-09T11:36:58;28.20;50.00
59309;DHT22;48433;53.016;-2.260;2022-07-09T11:39:27;28.20;49.60
59309;DHT22;48433;53.016;-2.260;2022-07-09T11:41:55;28.10;48.90
59309;DHT22;48433;53.016;-2.260;2022-07-09T11:44:24;28.20;49.60
59309;DHT22;48433;53.016;-2.260;2022-07-09T11:49:41;28.40;48.50
59309;DHT22;48433;53.016;-2.260;2022-07-09T11:55:45;28.30;47.10
59309;DHT22;48433;53.016;-2.260;2022-07-09T11:57:50;28.30;47.60
59309;DHT22;48433;53.016;-2.260;2022-07-09T12:00:31;28.10;48.50
59309;DHT22;48433;53.016;-2.260;2022-07-09T12:02:59;28.30;48.20
59309;DHT22;48433;53.016;-2.260;2022-07-09T12:05:36;28.40;48.00
59309;DHT22;48433;53.016;-2.260;2022-07-09T12:08:05;28.70;47.80
59309;DHT22;48433;53.016;-2.260;2022-07-09T12:10:36;29.10;46.90
59309;DHT22;48433;53.016;-2.260;2022-07-09T12:13:05;29.30;46.20
59309;DHT22;48433;53.016;-2.260;2022-07-09T12:15:32;29.40;45.90
59309;DHT22;48433;53.016;-2.260;2022-07-09T12:18:00;29.50;45.90
59309;DHT22;48433;53.016;-2.260;2022-07-09T12:20:29;29.70;45.80
59309;DHT22;48433;53.016;-2.260;2022-07-09T12:22:57;30.00;45.40
59309;DHT22;48433;53.016;-2.260;2022-07-09T12:25:25;30.30;44.00
59309;DHT22;48433;53.016;-2.260;2022-07-09T12:27:52;30.40;43.60
59309;DHT22;48433;53.016;-2.260;2022-07-09T12:30:20;30.50;43.40
59309;DHT22;48433;53.016;-2.260;2022-07-09T12:32:47;30.20;43.40
59309;DHT22;48433;53.016;-2.260;2022-07-09T12:35:15;30.00;43.90
59309;DHT22;48433;53.016;-2.260;2022-07-09T12:37:43;30.00;43.90
59309;DHT22;48433;53.016;-2.260;2022-07-09T12:40:10;29.90;42.80
59309;DHT22;48433;53.016;-2.260;2022-07-09T12:42:38;29.80;42.90
59309;DHT22;48433;53.016;-2.260;2022-07-09T12:45:06;29.80;43.30
59309;DHT22;48433;53.016;-2.260;2022-07-09T12:47:37;29.90;42.60
59309;DHT22;48433;53.016;-2.260;2022-07-09T12:50:06;29.90;43.00
59309;DHT22;48433;53.016;-2.260;2022-07-09T12:52:34;29.90;42.50
59309;DHT22;48433;53.016;-2.260;2022-07-09T12:55:03;29.80;42.90
59309;DHT22;48433;53.016;-2.260;2022-07-09T12:57:31;29.80;42.60
59309;DHT22;48433;53.016;-2.260;2022-07-09T12:59:59;29.90;41.90
59309;DHT22;48433;53.016;-2.260;2022-07-09T13:02:27;29.70;41.70
59309;DHT22;48433;53.016;-2.260;2022-07-09T13:04:55;29.60;42.10
59309;DHT22;48433;53.016;-2.260;2022-07-09T13:07:22;29.70;42.50
59309;DHT22;48433;53.016;-2.260;2022-07-09T13:09:50;29.80;43.20
59309;DHT22;48433;53.016;-2.260;2022-07-09T13:12:19;30.00;43.20
59309;DHT22;48433;53.016;-2.260;2022-07-09T13:14:47;30.30;43.00
59309;DHT22;48433;53.016;-2.260;2022-07-09T13:17:15;30.40;42.20
59309;DHT22;48433;53.016;-2.260;2022-07-09T13:20:00;30.40;41.80
59309;DHT22;48433;53.016;-2.260;2022-07-09T13:22:28;30.30;41.30
59309;DHT22;48433;53.016;-2.260;2022-07-09T13:24:55;30.20;41.70
59309;DHT22;48433;53.016;-2.260;2022-07-09T13:27:24;30.00;41.90
59309;DHT22;48433;53.016;-2.260;2022-07-09T13:29:52;30.10;42.20
59309;DHT22;48433;53.016;-2.260;2022-07-09T13:32:21;30.20;42.20
59309;DHT22;48433;53.016;-2.260;2022-07-09T13:34:49;30.60;41.80
59309;DHT22;48433;53.016;-2.260;2022-07-09T13:37:19;30.90;40.60
59309;DHT22;48433;53.016;-2.260;2022-07-09T13:39:47;31.00;40.70
59309;DHT22;48433;53.016;-2.260;2022-07-09T13:42:15;31.10;40.90
59309;DHT22;48433;53.016;-2.260;2022-07-09T13:44:42;31.40;40.20
59309;DHT22;48433;53.016;-2.260;2022-07-09T13:47:10;31.70;39.60
59309;DHT22;48433;53.016;-2.260;2022-07-09T13:49:38;31.70;38.90
59309;DHT22;48433;53.016;-2.260;2022-07-09T13:52:05;31.40;39.20
59309;DHT22;48433;53.016;-2.260;2022-07-09T13:54:33;31.30;39.50
59309;DHT22;48433;53.016;-2.260;2022-07-09T13:57:00;31.40;39.10
59309;DHT22;48433;53.016;-2.260;2022-07-09T13:59:28;31.40;38.20
59309;DHT22;48433;53.016;-2.260;2022-07-09T14:01:56;31.40;38.40
59309;DHT22;48433;53.016;-2.260;2022-07-09T14:04:24;31.30;38.60
59309;DHT22;48433;53.016;-2.260;2022-07-09T14:06:52;31.40;38.70
59309;DHT22;48433;53.016;-2.260;2022-07-09T14:09:19;31.50;38.70
59309;DHT22;48433;53.016;-2.260;2022-07-09T14:11:48;31.60;38.20
59309;DHT22;48433;53.016;-2.260;2022-07-09T14:14:15;31.70;37.10
59309;DHT22;48433;53.016;-2.260;2022-07-09T14:16:43;31.70;37.20
59309;DHT22;48433;53.016;-2.260;2022-07-09T14:19:11;31.70;37.60
59309;DHT22;48433;53.016;-2.260;2022-07-09T14:21:39;31.60;37.70
59309;DHT22;48433;53.016;-2.260;2022-07-09T14:24:12;31.70;37.90
59309;DHT22;48433;53.016;-2.260;2022-07-09T14:26:40;31.70;37.30
59309;DHT22;48433;53.016;-2.260;2022-07-09T14:29:12;31.50;37.60
59309;DHT22;48433;53.016;-2.260;2022-07-09T14:31:44;31.30;37.90
59309;DHT22;48433;53.016;-2.260;2022-07-09T14:34:11;31.30;37.70
59309;DHT22;48433;53.016;-2.260;2022-07-09T14:36:39;31.40;37.70
59309;DHT22;48433;53.016;-2.260;2022-07-09T14:39:07;31.40;38.10
59309;DHT22;48433;53.016;-2.260;2022-07-09T14:41:34;31.50;38.10
59309;DHT22;48433;53.016;-2.260;2022-07-09T14:44:03;31.50;37.00
59309;DHT22;48433;53.016;-2.260;2022-07-09T14:46:30;31.30;37.30
59309;DHT22;48433;53.016;-2.260;2022-07-09T14:48:58;31.20;37.50
59309;DHT22;48433;53.016;-2.260;2022-07-09T14:51:26;31.00;37.60
59309;DHT22;48433;53.016;-2.260;2022-07-09T14:53:53;31.00;37.30
59309;DHT22;48433;53.016;-2.260;2022-07-09T14:56:21;31.00;37.60
59309;DHT22;48433;53.016;-2.260;2022-07-09T14:58:49;30.80;38.20
59309;DHT22;48433;53.016;-2.260;2022-07-09T15:01:16;30.50;39.30
59309;DHT22;48433;53.016;-2.260;2022-07-09T15:03:44;30.40;39.30
59309;DHT22;48433;53.016;-2.260;2022-07-09T15:06:11;30.30;39.40
59309;DHT22;48433;53.016;-2.260;2022-07-09T15:08:39;30.20;39.80
59309;DHT22;48433;53.016;-2.260;2022-07-09T15:11:08;30.40;39.80
59309;DHT22;48433;53.016;-2.260;2022-07-09T15:13:36;30.40;39.60
59309;DHT22;48433;53.016;-2.260;2022-07-09T15:16:04;30.30;39.70
59309;DHT22;48433;53.016;-2.260;2022-07-09T15:18:32;30.30;39.90
59309;DHT22;48433;53.016;-2.260;2022-07-09T15:20:59;30.30;39.90
59309;DHT22;48433;53.016;-2.260;2022-07-09T15:23:27;30.20;40.40
59309;DHT22;48433;53.016;-2.260;2022-07-09T15:25:54;30.20;40.70
59309;DHT22;48433;53.016;-2.260;2022-07-09T15:28:22;30.20;40.90
59309;DHT22;48433;53.016;-2.260;2022-07-09T15:30:49;30.20;40.10
59309;DHT22;48433;53.016;-2.260;2022-07-09T15:33:17;30.10;40.30
59309;DHT22;48433;53.016;-2.260;2022-07-09T15:35:44;30.20;39.90
59309;DHT22;48433;53.016;-2.260;2022-07-09T15:38:12;30.40;39.60
59309;DHT22;48433;53.016;-2.260;2022-07-09T15:40:39;30.20;38.70
59309;DHT22;48433;53.016;-2.260;2022-07-09T15:43:06;29.90;39.10
59309;DHT22;48433;53.016;-2.260;2022-07-09T15:45:34;29.70;39.90